Time,TemperatureF,DewpointF,PressureIn,WindDirection,WindDirectionDegrees,WindSpeedMPH,WindSpeedGustMPH,Humidity,HourlyPrecipIn,Conditions,Clouds,dailyrainin,SolarRadiationWatts/m^2,SoftwareType,DateUTC
2013-06-29 00:01:00,58.0,58.0,-100.00,North,351,3.0,8.0,99,0.00,,,0.18,0.000000,,2013-06-29 04:01:00,
2013-06-29 00:11:00,58.0,58.0,-100.00,North,351,3.0,8.0,99,0.00,,,0.18,0.000000,,2013-06-29 04:11:00,
2013-06-29 00:32:00,58.0,57.0,-100.00,North,358,3.0,7.0,96,0.00,,,0.18,0.000000,,2013-06-29 04:32:00,
2013-06-29 00:41:00,58.0,57.0,-100.00,North,358,3.0,7.0,96,0.00,,,0.18,0.000000,,2013-06-29 04:41:00,
2013-06-29 00:51:00,58.0,57.0,-100.00,North,358,3.0,7.0,96,0.00,,,0.18,0.000000,,2013-06-29 04:51:00,
2013-06-29 01:01:00,58.0,57.0,-100.00,North,358,3.0,7.0,96,0.00,,,0.18,0.000000,,2013-06-29 05:01:00,
2013-06-29 01:11:00,58.0,57.0,-100.00,North,358,3.0,7.0,96,0.00,,,0.18,0.000000,,2013-06-29 05:11:00,
2013-06-29 01:12:00,57.0,56.0,-100.00,North,3,3.0,10.0,96,0.00,,,0.18,0.000000,,2013-06-29 05:12:00,
2013-06-29 01:42:00,57.0,56.0,-100.00,North,3,3.0,10.0,96,0.00,,,0.18,0.000000,,2013-06-29 05:42:00,
2013-06-29 01:52:00,57.0,56.0,-100.00,North,3,3.0,10.0,96,0.00,,,0.18,0.000000,,2013-06-29 05:52:00,
2013-06-29 02:01:00,57.0,56.0,-100.00,North,3,3.0,10.0,96,0.00,,,0.18,0.000000,,2013-06-29 06:01:00,
2013-06-29 02:12:00,58.0,57.0,-100.00,North,356,4.0,8.0,98,0.01,,,0.13,0.000000,,2013-06-29 06:12:00,
2013-06-29 02:43:00,58.0,57.0,-100.00,North,356,4.0,8.0,98,0.01,,,0.13,0.000000,,2013-06-29 06:43:00,
2013-06-29 02:53:00,58.0,57.0,-100.00,North,356,4.0,8.0,98,0.01,,,0.13,0.000000,,2013-06-29 06:53:00,
2013-06-29 03:02:00,58.0,57.0,-100.00,North,356,4.0,8.0,98,0.01,,,0.13,0.000000,,2013-06-29 07:02:00,
2013-06-29 03:12:00,58.0,57.0,-100.00,NNE,30,3.0,10.0,98,0.03,,,0.16,0.000000,,2013-06-29 07:12:00,
2013-06-29 03:43:00,58.0,57.0,-100.00,NNE,30,3.0,10.0,98,0.03,,,0.16,0.000000,,2013-06-29 07:43:00,
2013-06-29 03:53:00,58.0,57.0,-100.00,NNE,30,3.0,10.0,98,0.03,,,0.16,0.000000,,2013-06-29 07:53:00,
2013-06-29 04:01:00,58.0,57.0,-100.00,NNE,30,3.0,10.0,98,0.03,,,0.16,0.000000,,2013-06-29 08:01:00,
2013-06-29 04:12:00,57.0,56.0,-100.00,NNE,19,3.0,9.0,98,0.00,,,0.16,0.000000,,2013-06-29 08:12:00,
2013-06-29 04:43:00,57.0,56.0,-100.00,NNE,19,3.0,9.0,98,0.00,,,0.16,0.000000,,2013-06-29 08:43:00,
2013-06-29 04:52:00,57.0,56.0,-100.00,NNE,19,3.0,9.0,98,0.00,,,0.16,0.000000,,2013-06-29 08:52:00,
2013-06-29 05:02:00,57.0,56.0,-100.00,NNE,19,3.0,9.0,98,0.00,,,0.16,0.000000,,2013-06-29 09:02:00,
2013-06-29 05:42:00,57.0,56.0,-100.00,NNW,344,3.0,12.0,98,0.00,,,-99.99,0.000000,,2013-06-29 09:42:00,
2013-06-29 05:53:00,57.0,56.0,-100.00,NNW,344,3.0,12.0,98,0.00,,,-99.99,0.000000,,2013-06-29 09:53:00,
2013-06-29 06:01:00,57.0,56.0,-100.00,NNW,344,3.0,12.0,98,0.00,,,-99.99,0.000000,,2013-06-29 10:01:00,
2013-06-29 06:11:00,57.0,56.0,-100.00,NNW,344,3.0,12.0,98,0.00,,,-99.99,0.000000,,2013-06-29 10:11:00,
2013-06-29 06:43:00,57.0,56.0,-100.00,NNW,348,3.0,8.0,98,0.00,,,0.16,0.000000,,2013-06-29 10:43:00,
2013-06-29 06:53:00,57.0,56.0,-100.00,NNW,348,3.0,8.0,98,0.00,,,0.16,0.000000,,2013-06-29 10:53:00,
2013-06-29 07:02:00,57.0,56.0,-100.00,NNW,348,3.0,8.0,98,0.00,,,0.16,0.000000,,2013-06-29 11:02:00,
2013-06-29 07:11:00,57.0,56.0,-100.00,NNW,348,3.0,8.0,98,0.00,,,0.16,0.000000,,2013-06-29 11:11:00,
2013-06-29 07:12:00,57.0,56.0,-100.00,NNW,345,3.0,10.0,98,0.01,,,0.17,9.000000,,2013-06-29 11:12:00,
2013-06-29 07:43:00,57.0,56.0,-100.00,NNW,345,3.0,10.0,98,0.01,,,0.17,9.000000,,2013-06-29 11:43:00,
2013-06-29 07:53:00,57.0,56.0,-100.00,NNW,345,3.0,10.0,98,0.01,,,0.17,9.000000,,2013-06-29 11:53:00,
2013-06-29 08:02:00,57.0,56.0,-100.00,NNW,345,3.0,10.0,98,0.01,,,0.17,9.000000,,2013-06-29 12:02:00,
2013-06-29 08:43:00,58.0,57.0,-100.00,NNW,341,4.0,7.0,96,0.01,,,0.18,63.000000,,2013-06-29 12:43:00,
2013-06-29 08:53:00,58.0,57.0,-100.00,NNW,341,4.0,7.0,96,0.01,,,0.18,63.000000,,2013-06-29 12:53:00,
2013-06-29 09:02:00,58.0,57.0,-100.00,NNW,341,4.0,7.0,96,0.01,,,0.18,63.000000,,2013-06-29 13:02:00,
2013-06-29 09:11:00,58.0,57.0,-100.00,NNW,341,4.0,7.0,96,0.01,,,0.18,63.000000,,2013-06-29 13:11:00,
2013-06-29 09:12:00,60.0,57.0,-100.00,NNW,346,4.0,9.0,91,0.00,,,0.18,155.000000,,2013-06-29 13:12:00,
2013-06-29 09:43:00,60.0,57.0,-100.00,NNW,346,4.0,9.0,91,0.00,,,0.18,155.000000,,2013-06-29 13:43:00,
2013-06-29 09:53:00,60.0,57.0,-100.00,NNW,346,4.0,9.0,91,0.00,,,0.18,155.000000,,2013-06-29 13:53:00,
2013-06-29 10:02:00,60.0,57.0,-100.00,NNW,346,4.0,9.0,91,0.00,,,0.18,155.000000,,2013-06-29 14:02:00,
2013-06-29 10:45:00,62.0,58.0,-100.00,North,3,4.0,10.0,86,0.00,,,0.18,226.000000,,2013-06-29 14:45:00,
2013-06-29 10:53:00,62.0,58.0,-100.00,North,3,4.0,10.0,86,0.00,,,0.18,226.000000,,2013-06-29 14:53:00,
2013-06-29 11:01:00,62.0,58.0,-100.00,North,3,4.0,10.0,86,0.00,,,0.18,226.000000,,2013-06-29 15:01:00,
2013-06-29 11:11:00,62.0,58.0,-100.00,North,3,4.0,10.0,86,0.00,,,0.18,226.000000,,2013-06-29 15:11:00,
2013-06-29 11:12:00,64.0,54.0,-100.00,North,3,5.0,14.0,71,0.00,,,0.18,480.000000,,2013-06-29 15:12:00,
2013-06-29 11:42:00,64.0,54.0,-100.00,North,3,5.0,14.0,71,0.00,,,0.18,480.000000,,2013-06-29 15:42:00,
2013-06-29 11:53:00,64.0,54.0,-100.00,North,3,5.0,14.0,71,0.00,,,0.18,480.000000,,2013-06-29 15:53:00,
2013-06-29 12:02:00,64.0,54.0,-100.00,North,3,5.0,14.0,71,0.00,,,0.18,480.000000,,2013-06-29 16:02:00,
2013-06-29 12:12:00,64.0,53.0,-100.00,North,352,6.0,15.0,68,0.00,,,0.18,489.000000,,2013-06-29 16:12:00,
2013-06-29 12:34:00,64.0,53.0,-100.00,North,352,6.0,15.0,68,0.00,,,0.18,489.000000,,2013-06-29 16:34:00,
2013-06-29 12:43:00,64.0,53.0,-100.00,North,352,6.0,15.0,68,0.00,,,0.18,489.000000,,2013-06-29 16:43:00,
2013-06-29 12:53:00,64.0,53.0,-100.00,North,352,6.0,15.0,68,0.00,,,0.18,489.000000,,2013-06-29 16:53:00,
2013-06-29 13:01:00,64.0,53.0,-100.00,North,352,6.0,15.0,68,0.00,,,0.18,489.000000,,2013-06-29 17:01:00,
2013-06-29 13:12:00,67.0,53.0,-100.00,North,357,7.0,14.0,60,0.00,,,0.09,703.000000,,2013-06-29 17:12:00,
2013-06-29 13:34:00,67.0,53.0,-100.00,North,357,7.0,14.0,60,0.00,,,0.09,703.000000,,2013-06-29 17:34:00,
2013-06-29 13:42:00,67.0,53.0,-100.00,North,357,7.0,14.0,60,0.00,,,0.09,703.000000,,2013-06-29 17:42:00,
2013-06-29 13:53:00,67.0,53.0,-100.00,North,357,7.0,14.0,60,0.00,,,0.09,703.000000,,2013-06-29 17:53:00,
2013-06-29 14:01:00,67.0,53.0,-100.00,North,357,7.0,14.0,60,0.00,,,0.09,703.000000,,2013-06-29 18:01:00,
2013-06-29 14:12:00,70.0,53.0,-100.00,North,2,6.0,14.0,55,0.00,,,0.06,850.000000,,2013-06-29 18:12:00,
2013-06-29 14:43:00,70.0,53.0,-100.00,North,2,6.0,14.0,55,0.00,,,0.06,850.000000,,2013-06-29 18:43:00,
2013-06-29 14:53:00,70.0,53.0,-100.00,North,2,6.0,14.0,55,0.00,,,0.06,850.000000,,2013-06-29 18:53:00,
2013-06-29 15:01:00,70.0,53.0,-100.00,North,2,6.0,14.0,55,0.00,,,0.06,850.000000,,2013-06-29 19:01:00,
2013-06-29 15:43:00,68.0,53.0,-100.00,NE,36,5.0,14.0,59,0.00,,,0.06,749.000000,,2013-06-29 19:43:00,
2013-06-29 15:54:00,68.0,53.0,-100.00,NE,36,5.0,14.0,59,0.00,,,0.06,749.000000,,2013-06-29 19:54:00,
2013-06-29 16:02:00,68.0,53.0,-100.00,NE,36,5.0,14.0,59,0.00,,,0.06,749.000000,,2013-06-29 20:02:00,
2013-06-29 16:11:00,68.0,53.0,-100.00,NE,36,5.0,14.0,59,0.00,,,0.06,749.000000,,2013-06-29 20:11:00,
2013-06-29 16:33:00,68.0,53.0,-100.00,North,356,5.0,14.0,59,0.00,,,0.06,618.000000,,2013-06-29 20:33:00,
2013-06-29 16:43:00,68.0,53.0,-100.00,North,356,5.0,14.0,59,0.00,,,0.06,618.000000,,2013-06-29 20:43:00,
2013-06-29 16:52:00,68.0,53.0,-100.00,North,356,5.0,14.0,59,0.00,,,0.06,618.000000,,2013-06-29 20:52:00,
2013-06-29 17:02:00,68.0,53.0,-100.00,North,356,5.0,14.0,59,0.00,,,0.06,618.000000,,2013-06-29 21:02:00,
2013-06-29 17:11:00,68.0,53.0,-100.00,North,356,5.0,14.0,59,0.00,,,0.06,618.000000,,2013-06-29 21:11:00,
2013-06-29 17:42:00,70.0,53.0,-100.00,North,7,4.0,12.0,54,0.00,,,0.06,619.000000,,2013-06-29 21:42:00,
2013-06-29 17:52:00,70.0,53.0,-100.00,North,7,4.0,12.0,54,0.00,,,0.06,619.000000,,2013-06-29 21:52:00,
2013-06-29 18:01:00,70.0,53.0,-100.00,North,7,4.0,12.0,54,0.00,,,0.06,619.000000,,2013-06-29 22:01:00,
2013-06-29 18:11:00,70.0,53.0,-100.00,North,7,4.0,12.0,54,0.00,,,0.06,619.000000,,2013-06-29 22:11:00,
2013-06-29 18:12:00,67.0,48.0,-100.00,NNE,14,5.0,17.0,51,0.00,,,0.06,562.000000,,2013-06-29 22:12:00,
2013-06-29 18:43:00,67.0,48.0,-100.00,NNE,14,5.0,17.0,51,0.00,,,0.06,562.000000,,2013-06-29 22:43:00,
2013-06-29 18:53:00,67.0,48.0,-100.00,NNE,14,5.0,17.0,51,0.00,,,0.06,562.000000,,2013-06-29 22:53:00,
2013-06-29 19:02:00,67.0,48.0,-100.00,NNE,14,5.0,17.0,51,0.00,,,0.06,562.000000,,2013-06-29 23:02:00,
2013-06-29 19:12:00,64.0,45.0,-100.00,NNE,12,5.0,16.0,51,0.00,,,0.06,309.000000,,2013-06-29 23:12:00,
2013-06-29 19:34:00,64.0,45.0,-100.00,NNE,12,5.0,16.0,51,0.00,,,0.06,309.000000,,2013-06-29 23:34:00,
2013-06-29 19:43:00,64.0,45.0,-100.00,NNE,12,5.0,16.0,51,0.00,,,0.06,309.000000,,2013-06-29 23:43:00,
2013-06-29 19:53:00,64.0,45.0,-100.00,NNE,12,5.0,16.0,51,0.00,,,0.06,309.000000,,2013-06-29 23:53:00,
2013-06-29 20:02:00,64.0,45.0,-100.00,NNE,12,5.0,16.0,51,0.00,,,0.06,309.000000,,2013-06-30 00:02:00,
2013-06-29 21:33:00,62.0,41.0,-100.00,NNW,347,3.0,8.0,46,-99.99,,,0.06,122.000000,,2013-06-30 01:33:00,
2013-06-29 21:44:00,62.0,41.0,-100.00,NNW,347,3.0,8.0,46,-99.99,,,0.06,122.000000,,2013-06-30 01:44:00,
2013-06-29 21:53:00,62.0,41.0,-100.00,NNW,347,3.0,8.0,46,-99.99,,,0.06,122.000000,,2013-06-30 01:53:00,
2013-06-29 22:02:00,62.0,41.0,-100.00,NNW,347,3.0,8.0,46,-99.99,,,0.06,122.000000,,2013-06-30 02:02:00,
2013-06-29 22:11:00,62.0,41.0,-100.00,NNW,347,3.0,8.0,46,-99.99,,,0.06,122.000000,,2013-06-30 02:11:00,
2013-06-29 22:12:00,56.0,41.0,-100.00,NW,319,3.0,8.0,57,0.00,,,0.06,12.000000,,2013-06-30 02:12:00,
2013-06-29 22:34:00,56.0,41.0,-100.00,NW,319,3.0,8.0,57,0.00,,,0.06,12.000000,,2013-06-30 02:34:00,
2013-06-29 22:43:00,56.0,41.0,-100.00,NW,319,3.0,8.0,57,0.00,,,0.06,12.000000,,2013-06-30 02:43:00,
2013-06-29 22:53:00,56.0,41.0,-100.00,NW,319,3.0,8.0,57,0.00,,,0.06,12.000000,,2013-06-30 02:53:00,
2013-06-29 23:01:00,56.0,41.0,-100.00,NW,319,3.0,8.0,57,0.00,,,0.06,12.000000,,2013-06-30 03:01:00,
2013-06-29 23:12:00,51.0,44.0,-100.00,West,281,0.0,4.0,78,0.00,,,0.06,0.000000,,2013-06-30 03:12:00,
2013-06-29 23:43:00,51.0,44.0,-100.00,West,281,0.0,4.0,78,0.00,,,0.06,0.000000,,2013-06-30 03:43:00,
2013-06-29 23:53:00,51.0,44.0,-100.00,West,281,0.0,4.0,78,0.00,,,0.06,0.000000,,2013-06-30 03:53:00,